^^
Station Historical Data
Daily Summary for February 2, 2018 Units:  Both    English   Metric
« Previous Day
Next Day »
Daily Weekly Monthly Yearly Custom
  High: Low: Average:
Temperature: TemperatureF °F /  -17.8 °C 71.2 °F /  21.8 °C 78.8 °F /  26 °C
Dew Point: DewpointF °F /  -17.8 °C 39.4 °F /  4.1 °C 44.6 °F /  7 °C
Humidity: Humidity% 24% 29%
Wind Speed: WindSpeedMPHmph /  0km/h - -27.1mph /  -43.6km/h
Wind Gust: WindSpeedGustMPHmph /  0km/h - -
Wind- -
Pressure: PressureIn in /  0 hPa 29.50 in /  998.9 hPa -
Precipitation: 0.00 in /  0 mm    
Historical Graphs
 
 
Tabular Data for February 2, 2018
Time Temperature Dew Point Pressure Wind Wind Speed Wind Gust Humidity Rainfall Rate (Hourly) solar Conditions
TemperatureF °F /  -17.8 °C DewpointF °F /  -17.8 °C PressureInin /  0hPa Calm     Humidity% HourlyPrecipInin /  0mm SoftwareType W/m2 Conditions
08:39 71.2 °F /  21.8 °C 39.9 °F /  4.4 °C 29.57in /  1001.2hPa North -999.9mph /  -1609.1km/h -999.0mph /  -1607.7km/h 32% 0.00in /  0mm meteobridge W/m2
08:45 72.3 °F /  22.4 °C 39.9 °F /  4.4 °C 29.58in /  1001.6hPa East 2.0mph /  3.2km/h 5.0mph /  8km/h 31% 0.00in /  0mm meteobridge W/m2
08:52 73.0 °F /  22.8 °C 39.7 °F /  4.3 °C 29.58in /  1001.6hPa ESE 4.0mph /  6.4km/h 6.0mph /  9.7km/h 30% 0.00in /  0mm meteobridge W/m2
08:58 73.2 °F /  22.9 °C 39.9 °F /  4.4 °C 29.58in /  1001.6hPa NE 6.9mph /  11.1km/h 9.0mph /  14.5km/h 30% 0.00in /  0mm meteobridge W/m2
09:04 72.7 °F /  22.6 °C 39.4 °F /  4.1 °C 29.59in /  1001.9hPa NNE 2.9mph /  4.7km/h 11.0mph /  17.7km/h 30% 0.00in /  0mm meteobridge W/m2
09:10 72.0 °F /  22.2 °C 39.7 °F /  4.3 °C 29.59in /  1001.9hPa NNE 2.9mph /  4.7km/h 14.0mph /  22.5km/h 31% 0.00in /  0mm meteobridge W/m2
09:16 72.1 °F /  22.3 °C 39.9 °F /  4.4 °C 29.59in /  1001.9hPa ENE 4.9mph /  7.9km/h 11.0mph /  17.7km/h 31% 0.00in /  0mm meteobridge W/m2
09:22 72.3 °F /  22.4 °C 40.8 °F /  4.9 °C 29.59in /  1001.9hPa North 6.0mph /  9.7km/h 14.0mph /  22.5km/h 32% 0.00in /  0mm meteobridge W/m2
09:28 71.8 °F /  22.1 °C 41.9 °F /  5.5 °C 29.60in /  1002.3hPa NNE 6.9mph /  11.1km/h 13.0mph /  20.9km/h 34% 0.00in /  0mm meteobridge W/m2
09:34 71.4 °F /  21.9 °C 42.3 °F /  5.7 °C 29.60in /  1002.3hPa North 2.9mph /  4.7km/h 14.0mph /  22.5km/h 35% 0.00in /  0mm meteobridge W/m2
09:40 72.3 °F /  22.4 °C 42.4 °F /  5.8 °C 29.60in /  1002.3hPa ENE 4.9mph /  7.9km/h 7.0mph /  11.3km/h 34% 0.00in /  0mm meteobridge W/m2
09:46 72.9 °F /  22.7 °C 42.8 °F /  6 °C 29.61in /  1002.6hPa NNE 8.9mph /  14.3km/h 14.0mph /  22.5km/h 34% 0.00in /  0mm meteobridge W/m2
09:52 73.2 °F /  22.9 °C 43.2 °F /  6.2 °C 29.61in /  1002.6hPa NNE 8.9mph /  14.3km/h 13.0mph /  20.9km/h 34% 0.00in /  0mm meteobridge W/m2
09:58 73.8 °F /  23.2 °C 43.7 °F /  6.5 °C 29.61in /  1002.6hPa NNE 4.0mph /  6.4km/h 13.0mph /  20.9km/h 34% 0.00in /  0mm meteobridge W/m2
10:05 73.8 °F /  23.2 °C 43.7 °F /  6.5 °C 29.62in /  1002.9hPa NNW 2.9mph /  4.7km/h 11.0mph /  17.7km/h 34% 0.00in /  0mm meteobridge W/m2
10:11 74.7 °F /  23.7 °C 43.7 °F /  6.5 °C 29.61in /  1002.6hPa NNE 6.0mph /  9.7km/h 15.0mph /  24.1km/h 33% 0.00in /  0mm meteobridge W/m2
10:17 75.7 °F /  24.3 °C 44.6 °F /  7 °C 29.61in /  1002.6hPa NNE 11.0mph /  17.7km/h 16.0mph /  25.7km/h 33% 0.00in /  0mm meteobridge W/m2
10:23 75.0 °F /  23.9 °C 44.8 °F /  7.1 °C 29.61in /  1002.6hPa NNE 2.0mph /  3.2km/h 5.0mph /  8km/h 34% 0.00in /  0mm meteobridge W/m2
10:29 75.7 °F /  24.3 °C 45.3 °F /  7.4 °C 29.61in /  1002.6hPa North 4.0mph /  6.4km/h 8.0mph /  12.9km/h 34% 0.00in /  0mm meteobridge W/m2
10:35 76.5 °F /  24.7 °C 46.0 °F /  7.8 °C 29.61in /  1002.6hPa NNW 6.9mph /  11.1km/h 10.0mph /  16.1km/h 34% 0.00in /  0mm meteobridge W/m2
10:41 76.6 °F /  24.8 °C 46.2 °F /  7.9 °C 29.61in /  1002.6hPa NNE 4.9mph /  7.9km/h 9.0mph /  14.5km/h 34% 0.00in /  0mm meteobridge W/m2
10:47 76.6 °F /  24.8 °C 46.2 °F /  7.9 °C 29.61in /  1002.6hPa NNW 6.9mph /  11.1km/h 9.0mph /  14.5km/h 34% 0.00in /  0mm meteobridge W/m2
10:54 76.5 °F /  24.7 °C 46.0 °F /  7.8 °C 29.60in /  1002.3hPa NE 2.9mph /  4.7km/h 5.0mph /  8km/h 34% 0.00in /  0mm meteobridge W/m2
11:00 76.8 °F /  24.9 °C 45.5 °F /  7.5 °C 29.61in /  1002.6hPa NNW 6.9mph /  11.1km/h 12.0mph /  19.3km/h 33% 0.00in /  0mm meteobridge W/m2
11:06 77.5 °F /  25.3 °C 46.2 °F /  7.9 °C 29.61in /  1002.6hPa NNW 4.0mph /  6.4km/h 5.0mph /  8km/h 33% 0.00in /  0mm meteobridge W/m2
11:12 78.6 °F /  25.9 °C 46.2 °F /  7.9 °C 29.60in /  1002.3hPa SSE 4.0mph /  6.4km/h 4.0mph /  6.4km/h 32% 0.00in /  0mm meteobridge W/m2
11:18 80.1 °F /  26.7 °C 47.5 °F /  8.6 °C 29.61in /  1002.6hPa North 4.9mph /  7.9km/h 15.0mph /  24.1km/h 32% 0.00in /  0mm meteobridge W/m2
11:24 78.6 °F /  25.9 °C 46.2 °F /  7.9 °C 29.61in /  1002.6hPa North 4.9mph /  7.9km/h 15.0mph /  24.1km/h 32% 0.00in /  0mm meteobridge W/m2
11:30 79.0 °F /  26.1 °C 47.5 °F /  8.6 °C 29.60in /  1002.3hPa Calm   3.0mph /  4.8km/h 33% 0.00in /  0mm meteobridge W/m2
11:36 79.7 °F /  26.5 °C 47.3 °F /  8.5 °C 29.60in /  1002.3hPa Calm   8.0mph /  12.9km/h 32% 0.00in /  0mm meteobridge W/m2
11:43 80.6 °F /  27 °C 47.1 °F /  8.4 °C 29.60in /  1002.3hPa SSE 2.0mph /  3.2km/h 4.0mph /  6.4km/h 31% 0.00in /  0mm meteobridge W/m2
11:49 81.0 °F /  27.2 °C 47.5 °F /  8.6 °C 29.59in /  1001.9hPa ENE 6.0mph /  9.7km/h 8.0mph /  12.9km/h 31% 0.00in /  0mm meteobridge W/m2
11:55 79.9 °F /  26.6 °C 46.6 °F /  8.1 °C 29.59in /  1001.9hPa NNE 2.0mph /  3.2km/h 8.0mph /  12.9km/h 31% 0.00in /  0mm meteobridge W/m2
12:01 79.9 °F /  26.6 °C 46.6 °F /  8.1 °C 29.60in /  1002.3hPa ENE 2.0mph /  3.2km/h 6.0mph /  9.7km/h 31% 0.00in /  0mm meteobridge W/m2
12:07 80.2 °F /  26.8 °C 46.9 °F /  8.3 °C 29.59in /  1001.9hPa North 8.9mph /  14.3km/h 14.0mph /  22.5km/h 31% 0.00in /  0mm meteobridge W/m2
12:13 79.7 °F /  26.5 °C 46.4 °F /  8 °C 29.59in /  1001.9hPa ENE 6.0mph /  9.7km/h 6.0mph /  9.7km/h 31% 0.00in /  0mm meteobridge W/m2
12:19 81.1 °F /  27.3 °C 47.7 °F /  8.7 °C 29.58in /  1001.6hPa ESE 2.9mph /  4.7km/h 6.0mph /  9.7km/h 31% 0.00in /  0mm meteobridge W/m2
12:25 83.5 °F /  28.6 °C 47.8 °F /  8.8 °C 29.59in /  1001.9hPa ESE 2.0mph /  3.2km/h 5.0mph /  8km/h 29% 0.00in /  0mm meteobridge W/m2
12:32 82.9 °F /  28.3 °C 48.4 °F /  9.1 °C 29.59in /  1001.9hPa NNE 10.1mph /  16.3km/h 10.1mph /  16.3km/h 30% 0.00in /  0mm meteobridge W/m2
12:38 80.1 °F /  26.7 °C 46.8 °F /  8.2 °C 29.58in /  1001.6hPa North 2.0mph /  3.2km/h 9.0mph /  14.5km/h 31% 0.00in /  0mm meteobridge W/m2
12:44 79.9 °F /  26.6 °C 46.6 °F /  8.1 °C 29.58in /  1001.6hPa SW 4.9mph /  7.9km/h 6.0mph /  9.7km/h 31% 0.00in /  0mm meteobridge W/m2
12:50 79.0 °F /  26.1 °C 47.5 °F /  8.6 °C 29.59in /  1001.9hPa NNE 2.9mph /  4.7km/h 4.0mph /  6.4km/h 33% 0.00in /  0mm meteobridge W/m2
12:56 80.4 °F /  26.9 °C 46.9 °F /  8.3 °C 29.59in /  1001.9hPa WSW 2.9mph /  4.7km/h 7.0mph /  11.3km/h 31% 0.00in /  0mm meteobridge W/m2
13:02 81.9 °F /  27.7 °C 47.3 °F /  8.5 °C 29.58in /  1001.6hPa North 6.0mph /  9.7km/h 7.0mph /  11.3km/h 30% 0.00in /  0mm meteobridge W/m2
13:08 81.1 °F /  27.3 °C 47.7 °F /  8.7 °C 29.58in /  1001.6hPa ESE 0.9mph /  1.4km/h 3.0mph /  4.8km/h 31% 0.00in /  0mm meteobridge W/m2
13:14 81.5 °F /  27.5 °C 47.1 °F /  8.4 °C 29.57in /  1001.2hPa NE 2.0mph /  3.2km/h 6.0mph /  9.7km/h 30% 0.00in /  0mm meteobridge W/m2
13:21 81.5 °F /  27.5 °C 47.1 °F /  8.4 °C 29.57in /  1001.2hPa NE 2.0mph /  3.2km/h 4.0mph /  6.4km/h 30% 0.00in /  0mm meteobridge W/m2
13:27 81.0 °F /  27.2 °C 47.5 °F /  8.6 °C 29.57in /  1001.2hPa SSE 2.9mph /  4.7km/h 5.0mph /  8km/h 31% 0.00in /  0mm meteobridge W/m2
13:49 84.0 °F /  28.9 °C 48.4 °F /  9.1 °C 29.57in /  1001.2hPa NE 6.0mph /  9.7km/h 7.0mph /  11.3km/h 29% 0.00in /  0mm meteobridge W/m2
14:08 80.4 °F /  26.9 °C 46.9 °F /  8.3 °C 29.56in /  1000.9hPa NNW 2.9mph /  4.7km/h 11.0mph /  17.7km/h 31% 0.00in /  0mm meteobridge W/m2
14:14 81.7 °F /  27.6 °C 47.3 °F /  8.5 °C 29.56in /  1000.9hPa NE 10.1mph /  16.3km/h 12.0mph /  19.3km/h 30% 0.00in /  0mm meteobridge W/m2
14:20 82.6 °F /  28.1 °C 47.1 °F /  8.4 °C 29.56in /  1000.9hPa North 4.0mph /  6.4km/h 11.0mph /  17.7km/h 29% 0.00in /  0mm meteobridge W/m2
14:38 82.0 °F /  27.8 °C 46.6 °F /  8.1 °C 29.54in /  1000.2hPa Calm   3.0mph /  4.8km/h 29% 0.00in /  0mm meteobridge W/m2
14:44 81.3 °F /  27.4 °C 46.0 °F /  7.8 °C 29.54in /  1000.2hPa Calm   5.0mph /  8km/h 29% 0.00in /  0mm meteobridge W/m2
14:50 81.1 °F /  27.3 °C 45.9 °F /  7.7 °C 29.54in /  1000.2hPa NNW 4.0mph /  6.4km/h 7.0mph /  11.3km/h 29% 0.00in /  0mm meteobridge W/m2
14:56 81.0 °F /  27.2 °C 46.6 °F /  8.1 °C 29.54in /  1000.2hPa SW 2.9mph /  4.7km/h 8.0mph /  12.9km/h 30% 0.00in /  0mm meteobridge W/m2
15:03 80.8 °F /  27.1 °C 46.4 °F /  8 °C 29.54in /  1000.2hPa Calm     30% 0.00in /  0mm meteobridge W/m2
15:09 81.1 °F /  27.3 °C 46.8 °F /  8.2 °C 29.54in /  1000.2hPa Calm   2.0mph /  3.2km/h 30% 0.00in /  0mm meteobridge W/m2
15:15 81.0 °F /  27.2 °C 46.6 °F /  8.1 °C 29.54in /  1000.2hPa Calm   3.0mph /  4.8km/h 30% 0.00in /  0mm meteobridge W/m2
15:21 81.0 °F /  27.2 °C 46.6 °F /  8.1 °C 29.53in /  999.9hPa SSW 2.0mph /  3.2km/h 4.0mph /  6.4km/h 30% 0.00in /  0mm meteobridge W/m2
15:27 81.0 °F /  27.2 °C 46.6 °F /  8.1 °C 29.54in /  1000.2hPa SE 2.0mph /  3.2km/h 5.0mph /  8km/h 30% 0.00in /  0mm meteobridge W/m2
15:33 81.3 °F /  27.4 °C 46.9 °F /  8.3 °C 29.53in /  999.9hPa SSE 2.0mph /  3.2km/h 4.0mph /  6.4km/h 30% 0.00in /  0mm meteobridge W/m2
15:39 81.7 °F /  27.6 °C 46.4 °F /  8 °C 29.53in /  999.9hPa Calm     29% 0.00in /  0mm meteobridge W/m2
15:46 81.7 °F /  27.6 °C 47.3 °F /  8.5 °C 29.54in /  1000.2hPa SE 2.9mph /  4.7km/h 5.0mph /  8km/h 30% 0.00in /  0mm meteobridge W/m2
16:08 81.5 °F /  27.5 °C 46.2 °F /  7.9 °C 29.52in /  999.5hPa ENE 2.9mph /  4.7km/h 5.0mph /  8km/h 29% 0.00in /  0mm meteobridge W/m2
16:14 81.0 °F /  27.2 °C 45.7 °F /  7.6 °C 29.52in /  999.5hPa ENE 2.0mph /  3.2km/h 4.0mph /  6.4km/h 29% 0.00in /  0mm meteobridge W/m2
16:21 80.8 °F /  27.1 °C 46.4 °F /  8 °C 29.52in /  999.5hPa Calm     30% 0.00in /  0mm meteobridge W/m2
16:27 81.0 °F /  27.2 °C 46.6 °F /  8.1 °C 29.52in /  999.5hPa Calm   2.0mph /  3.2km/h 30% 0.00in /  0mm meteobridge W/m2
16:33 81.1 °F /  27.3 °C 46.8 °F /  8.2 °C 29.52in /  999.5hPa Calm   1.0mph /  1.6km/h 30% 0.00in /  0mm meteobridge W/m2
16:39 81.1 °F /  27.3 °C 45.9 °F /  7.7 °C 29.52in /  999.5hPa SE 6.9mph /  11.1km/h 7.0mph /  11.3km/h 29% 0.00in /  0mm meteobridge W/m2
16:55 81.0 °F /  27.2 °C 45.7 °F /  7.6 °C 29.52in /  999.5hPa South 4.0mph /  6.4km/h 6.0mph /  9.7km/h 29% 0.00in /  0mm meteobridge W/m2
17:02 81.1 °F /  27.3 °C 45.9 °F /  7.7 °C 29.51in /  999.2hPa Calm   2.0mph /  3.2km/h 29% 0.00in /  0mm meteobridge W/m2
17:08 81.0 °F /  27.2 °C 45.7 °F /  7.6 °C 29.51in /  999.2hPa SSW 2.0mph /  3.2km/h 4.0mph /  6.4km/h 29% 0.00in /  0mm meteobridge W/m2
17:14 81.3 °F /  27.4 °C 46.0 °F /  7.8 °C 29.51in /  999.2hPa NW 2.0mph /  3.2km/h 3.0mph /  4.8km/h 29% 0.00in /  0mm meteobridge W/m2
17:20 82.0 °F /  27.8 °C 45.7 °F /  7.6 °C 29.51in /  999.2hPa NE 2.0mph /  3.2km/h 4.0mph /  6.4km/h 28% 0.00in /  0mm meteobridge W/m2
17:26 83.3 °F /  28.5 °C 45.9 °F /  7.7 °C 29.50in /  998.9hPa NW 0.9mph /  1.4km/h 6.0mph /  9.7km/h 27% 0.00in /  0mm meteobridge W/m2
17:32 84.9 °F /  29.4 °C 46.2 °F /  7.9 °C 29.50in /  998.9hPa SE 6.9mph /  11.1km/h 7.0mph /  11.3km/h 26% 0.00in /  0mm meteobridge W/m2
17:38 86.0 °F /  30 °C 46.0 °F /  7.8 °C 29.50in /  998.9hPa Calm   2.0mph /  3.2km/h 25% 0.00in /  0mm meteobridge W/m2
17:45 86.4 °F /  30.2 °C 46.4 °F /  8 °C 29.50in /  998.9hPa Calm   1.0mph /  1.6km/h 25% 0.00in /  0mm meteobridge W/m2
17:51 86.7 °F /  30.4 °C 45.7 °F /  7.6 °C 29.50in /  998.9hPa ESE 2.0mph /  3.2km/h 5.0mph /  8km/h 24% 0.00in /  0mm meteobridge W/m2
17:57 86.9 °F /  30.5 °C 45.7 °F /  7.6 °C 29.50in /  998.9hPa SE 0.9mph /  1.4km/h 1.0mph /  1.6km/h 24% 0.00in /  0mm meteobridge W/m2
18:03 86.4 °F /  30.2 °C 45.3 °F /  7.4 °C 29.50in /  998.9hPa SE 0.9mph /  1.4km/h 2.0mph /  3.2km/h 24% 0.00in /  0mm meteobridge W/m2
18:09 84.6 °F /  29.2 °C 45.0 °F /  7.2 °C 29.50in /  998.9hPa South 4.0mph /  6.4km/h 9.0mph /  14.5km/h 25% 0.00in /  0mm meteobridge W/m2
18:16 83.5 °F /  28.6 °C 43.0 °F /  6.1 °C 29.50in /  998.9hPa SSE 2.9mph /  4.7km/h 5.0mph /  8km/h 24% 0.00in /  0mm meteobridge W/m2
18:22 83.1 °F /  28.4 °C 43.7 °F /  6.5 °C 29.50in /  998.9hPa South 4.0mph /  6.4km/h 6.0mph /  9.7km/h 25% 0.00in /  0mm meteobridge W/m2
18:28 82.9 °F /  28.3 °C 43.5 °F /  6.4 °C 29.50in /  998.9hPa Calm   1.0mph /  1.6km/h 25% 0.00in /  0mm meteobridge W/m2
18:42 84.2 °F /  29 °C 43.5 °F /  6.4 °C 29.50in /  998.9hPa Calm   3.0mph /  4.8km/h 24% 0.00in /  0mm meteobridge W/m2
18:48 83.3 °F /  28.5 °C 42.8 °F /  6 °C 29.51in /  999.2hPa South 2.0mph /  3.2km/h 6.0mph /  9.7km/h 24% 0.00in /  0mm meteobridge W/m2
18:54 82.2 °F /  27.9 °C 43.0 °F /  6.1 °C 29.51in /  999.2hPa SSE 10.1mph /  16.3km/h 10.1mph /  16.3km/h 25% 0.00in /  0mm meteobridge W/m2
19:00 82.0 °F /  27.8 °C 41.7 °F /  5.4 °C 29.52in /  999.5hPa SE 11.0mph /  17.7km/h 12.0mph /  19.3km/h 24% 0.00in /  0mm meteobridge W/m2
19:06 81.7 °F /  27.6 °C 41.4 °F /  5.2 °C 29.52in /  999.5hPa South 8.9mph /  14.3km/h 17.0mph /  27.4km/h 24% 0.00in /  0mm meteobridge W/m2
19:13 80.8 °F /  27.1 °C 41.7 °F /  5.4 °C 29.52in /  999.5hPa SE 6.0mph /  9.7km/h 11.0mph /  17.7km/h 25% 0.00in /  0mm meteobridge W/m2
19:25 79.5 °F /  26.4 °C 41.5 °F /  5.3 °C 29.53in /  999.9hPa South 2.9mph /  4.7km/h 13.0mph /  20.9km/h 26% 0.00in /  0mm meteobridge W/m2
19:31 79.3 °F /  26.3 °C 41.5 °F /  5.3 °C 29.53in /  999.9hPa SSE 4.9mph /  7.9km/h 5.0mph /  8km/h 26% 0.00in /  0mm meteobridge W/m2
19:37 79.3 °F /  26.3 °C 41.5 °F /  5.3 °C 29.54in /  1000.2hPa SSE 4.9mph /  7.9km/h -999.0mph /  -1607.7km/h 26% 0.00in /  0mm meteobridge W/m2
19:43 79.3 °F /  26.3 °C 41.5 °F /  5.3 °C 29.54in /  1000.2hPa North -999.9mph /  -1609.1km/h -999.0mph /  -1607.7km/h 26% 0.00in /  0mm meteobridge W/m2
19:51 79.3 °F /  26.3 °C 41.5 °F /  5.3 °C 29.54in /  1000.2hPa North -999.9mph /  -1609.1km/h -999.0mph /  -1607.7km/h 26% 0.00in /  0mm meteobridge W/m2
Regenstein, Windhoek, Namibia
Compliments of Weather Underground - 2.5 mb